createdAt,value
2022-08-22T00:01:59.528Z,94587.25
2022-08-22T00:03:03.567Z,94609.50
2022-08-22T00:03:06.993Z,94596.06
2022-08-22T00:04:03.854Z,94586.28
2022-08-22T00:06:07.097Z,94588.81
2022-08-22T00:08:08.804Z,94586.31
2022-08-22T00:10:12.432Z,94577.75
2022-08-22T00:12:27.471Z,94590.88
2022-08-22T00:14:36.602Z,94583.47
2022-08-22T00:16:38.884Z,94582.91
2022-08-22T00:18:40.917Z,94574.31
2022-08-22T00:20:42.620Z,94581.91
2022-08-22T00:22:43.844Z,94584.97
2022-08-22T00:24:46.644Z,94581.66
2022-08-22T00:26:47.170Z,94586.22
2022-08-22T00:28:50.631Z,94580.63
2022-08-22T00:30:52.900Z,94580.28
2022-08-22T00:32:54.286Z,94567.53
2022-08-22T00:34:54.984Z,94574.13
2022-08-22T00:36:57.864Z,94575.78
2022-08-22T00:39:02.571Z,94571.84
2022-08-22T00:41:03.828Z,94570.97
2022-08-22T00:43:13.427Z,94570.31
2022-08-22T00:45:18.451Z,94571.94
2022-08-22T00:47:27.419Z,94571.09
2022-08-22T00:49:35.679Z,94564.97
2022-08-22T00:51:50.295Z,94572.53
2022-08-22T00:53:51.374Z,94568.63
2022-08-22T00:55:55.094Z,94564.97
2022-08-22T00:58:01.492Z,94569.59
2022-08-22T01:00:17.370Z,94564.50
2022-08-22T01:02:22.058Z,94558.78
2022-08-22T01:04:28.867Z,94561.56
2022-08-22T01:06:33.892Z,94565.81
2022-08-22T01:08:39.800Z,94559.03
2022-08-22T01:10:46.311Z,94559.50
2022-08-22T01:12:54.597Z,94559.81
2022-08-22T01:14:55.859Z,94559.59
2022-08-22T01:17:01.681Z,94562.25
2022-08-22T01:19:22.735Z,94561.06
2022-08-22T01:21:38.603Z,94563.28
2022-08-22T01:23:54.000Z,94560.25
2022-08-22T01:26:06.900Z,94558.31
2022-08-22T01:28:24.329Z,94561.50
2022-08-22T01:30:32.621Z,94565.25
2022-08-22T01:32:53.386Z,94567.19
2022-08-22T01:35:01.052Z,94573.09
2022-08-22T01:37:13.837Z,94569.38
2022-08-22T01:39:35.788Z,94575.31
2022-08-22T01:41:45.879Z,94570.44
2022-08-22T01:43:59.833Z,94575.56
2022-08-22T01:46:13.718Z,94574.13
2022-08-22T01:48:21.659Z,94575.53
2022-08-22T01:50:24.325Z,94579.53
2022-08-22T01:52:31.936Z,94576.66
2022-08-22T01:54:38.500Z,94569.66
2022-08-22T01:56:40.234Z,94569.25
2022-08-22T01:58:44.291Z,94568.19
2022-08-22T02:00:56.523Z,94574.50
2022-08-22T02:03:03.771Z,94568.06
2022-08-22T02:05:06.172Z,94563.34
2022-08-22T02:07:09.025Z,94581.00
2022-08-22T02:09:10.570Z,94569.09
2022-08-22T02:11:10.537Z,94556.59
2022-08-22T02:13:11.227Z,94560.28
2022-08-22T02:15:20.865Z,94566.97
2022-08-22T02:17:21.340Z,94568.38
2022-08-22T02:19:24.524Z,94574.69
2022-08-22T02:21:25.424Z,94569.19
2022-08-22T02:23:29.563Z,94566.31
2022-08-22T02:25:32.819Z,94572.00
2022-08-22T02:27:35.097Z,94567.28
2022-08-22T02:29:35.778Z,94572.16
2022-08-22T02:31:38.332Z,94574.44
2022-08-22T02:33:43.804Z,94574.25
2022-08-22T02:35:49.694Z,94571.72
2022-08-22T02:37:56.316Z,94569.44
2022-08-22T02:40:06.522Z,94570.25
2022-08-22T02:42:15.951Z,94571.66
2022-08-22T02:44:17.099Z,94569.19
2022-08-22T02:46:22.329Z,94570.56
2022-08-22T02:48:28.241Z,94572.41
2022-08-22T02:50:32.850Z,94573.69
2022-08-22T02:52:34.945Z,94582.59
2022-08-22T02:54:38.090Z,94575.88
2022-08-22T02:56:41.356Z,94582.44
2022-08-22T02:58:44.127Z,94583.84
2022-08-22T03:00:47.604Z,94582.38
2022-08-22T03:03:00.360Z,94579.34
2022-08-22T03:05:01.098Z,94571.06
2022-08-22T03:07:06.939Z,94573.72
2022-08-22T03:09:20.085Z,94575.72
2022-08-22T03:11:22.571Z,94575.06
2022-08-22T03:13:26.853Z,94587.16
2022-08-22T03:15:28.057Z,94587.75
2022-08-22T03:17:30.628Z,94583.44
2022-08-22T03:19:31.549Z,94583.34
2022-08-22T03:21:33.893Z,94590.06
2022-08-22T03:23:36.111Z,94595.91
2022-08-22T03:25:37.840Z,94592.97
2022-08-22T03:27:37.619Z,94593.78
2022-08-22T03:29:38.736Z,94588.22
2022-08-22T03:31:36.997Z,94584.75
2022-08-22T03:33:35.460Z,94584.75
2022-08-22T03:35:36.068Z,94592.97
2022-08-22T03:37:39.139Z,94581.78
2022-08-22T03:39:43.664Z,94587.91
2022-08-22T03:42:00.353Z,94589.59
2022-08-22T03:44:16.841Z,94589.81
2022-08-22T03:46:34.872Z,94588.94
2022-08-22T03:48:55.389Z,94581.97
2022-08-22T03:51:02.166Z,94585.53
2022-08-22T03:53:23.181Z,94591.47
2022-08-22T03:55:27.992Z,94583.31
2022-08-22T03:57:37.222Z,94590.66
2022-08-22T03:59:49.843Z,94589.81
2022-08-22T04:02:41.934Z,94586.59
2022-08-22T04:04:50.181Z,94584.50
2022-08-22T04:07:00.222Z,94586.56
2022-08-22T04:09:18.440Z,94583.38
2022-08-22T04:11:41.459Z,94584.75
2022-08-22T04:13:51.114Z,94578.72
2022-08-22T04:16:03.996Z,94590.03
2022-08-22T04:18:16.783Z,94581.41
2022-08-22T04:20:26.161Z,94584.41
2022-08-22T04:22:33.618Z,94587.16
2022-08-22T04:24:38.470Z,94589.44
2022-08-22T04:26:41.654Z,94583.38
2022-08-22T04:28:43.370Z,94585.03
2022-08-22T04:30:45.283Z,94580.38
2022-08-22T04:32:46.183Z,94590.00
2022-08-22T04:34:46.915Z,94588.66
2022-08-22T04:36:50.096Z,94593.56
2022-08-22T04:38:49.627Z,94589.38
2022-08-22T04:40:50.819Z,94591.16
2022-08-22T04:42:54.074Z,94589.25
2022-08-22T04:44:57.757Z,94583.25
2022-08-22T04:46:59.228Z,94591.91
2022-08-22T04:49:02.442Z,94592.34
2022-08-22T04:51:03.219Z,94600.84
2022-08-22T04:53:09.584Z,94597.63
2022-08-22T04:55:12.238Z,94602.72
2022-08-22T04:57:17.137Z,94608.06
2022-08-22T04:59:17.656Z,94605.19
2022-08-22T05:01:17.830Z,94603.59
2022-08-22T05:03:18.006Z,94609.31
2022-08-22T05:05:18.222Z,94608.09
2022-08-22T05:07:17.727Z,94603.59
2022-08-22T05:09:18.784Z,94608.72
2022-08-22T05:11:19.555Z,94616.09
2022-08-22T05:13:19.807Z,94617.53
2022-08-22T05:15:22.893Z,94617.91
2022-08-22T05:17:24.036Z,94619.56
2022-08-22T05:19:31.257Z,94629.44
2022-08-22T05:21:32.994Z,94623.28
2022-08-22T05:23:36.051Z,94631.69
2022-08-22T05:25:36.962Z,94632.91
2022-08-22T05:27:36.730Z,94631.66
2022-08-22T05:29:34.865Z,94637.22
2022-08-22T05:31:34.240Z,94636.19
2022-08-22T05:33:34.294Z,94633.94
2022-08-22T05:35:36.332Z,94632.09
2022-08-22T05:37:38.502Z,94634.53
2022-08-22T05:39:38.877Z,94639.47
2022-08-22T05:41:39.165Z,94631.28
2022-08-22T05:43:39.097Z,94634.78
2022-08-22T05:45:38.134Z,94644.19
2022-08-22T05:47:37.681Z,94637.56
2022-08-22T05:49:39.023Z,94643.56
2022-08-22T05:51:40.877Z,94646.94
2022-08-22T05:53:41.878Z,94647.47
2022-08-22T05:55:44.407Z,94657.44
2022-08-22T05:57:46.855Z,94654.84
2022-08-22T05:59:45.190Z,94659.16
2022-08-22T06:01:48.049Z,94656.88
2022-08-22T06:03:50.920Z,94655.47
2022-08-22T06:05:52.048Z,94664.00
2022-08-22T06:07:51.535Z,94656.31
2022-08-22T06:10:10.068Z,94648.97
2022-08-22T06:12:21.267Z,94656.03
2022-08-22T06:14:27.866Z,94652.75
2022-08-22T06:16:32.938Z,94652.88
2022-08-22T06:18:32.660Z,94651.56
2022-08-22T06:20:34.366Z,94653.06
2022-08-22T06:22:36.470Z,94658.50
2022-08-22T06:24:37.166Z,94664.41
2022-08-22T06:26:38.143Z,94659.97
2022-08-22T06:28:55.026Z,94660.38
2022-08-22T06:30:56.334Z,94667.31
2022-08-22T06:33:00.171Z,94663.03
2022-08-22T06:35:05.398Z,94664.75
2022-08-22T06:37:06.141Z,94656.31
2022-08-22T06:39:09.118Z,94661.25
2022-08-22T06:41:09.167Z,94664.28
2022-08-22T06:43:07.452Z,94659.19
2022-08-22T06:45:08.070Z,94656.56
2022-08-22T06:47:08.719Z,94664.03
2022-08-22T06:49:08.436Z,94661.13
2022-08-22T06:51:08.403Z,94665.97
2022-08-22T06:53:08.800Z,94661.91
2022-08-22T06:55:08.305Z,94657.53
2022-08-22T06:57:07.812Z,94660.97
2022-08-22T06:59:08.960Z,94667.09
2022-08-22T07:01:11.471Z,94670.19
2022-08-22T07:03:15.175Z,94661.88
2022-08-22T07:05:16.287Z,94669.59
2022-08-22T07:07:18.927Z,94663.78
2022-08-22T07:09:19.880Z,94661.06
2022-08-22T07:11:21.976Z,94664.69
2022-08-22T07:14:44.506Z,94667.97
2022-08-22T07:16:49.814Z,94675.03
2022-08-22T07:18:51.009Z,94668.97
2022-08-22T07:20:53.154Z,94669.41
2022-08-22T07:22:56.138Z,94673.72
2022-08-22T07:24:57.007Z,94677.31
2022-08-22T07:27:12.707Z,94674.47
2022-08-22T07:29:23.271Z,94672.09
2022-08-22T07:31:33.613Z,94673.41
2022-08-22T07:33:42.360Z,94665.53
2022-08-22T07:35:53.402Z,94674.91
2022-08-22T07:38:00.518Z,94670.13
2022-08-22T07:40:10.442Z,94673.84
2022-08-22T07:42:15.502Z,94672.94
2022-08-22T07:44:20.080Z,94670.84
2022-08-22T07:46:30.199Z,94672.28
2022-08-22T07:48:31.561Z,94675.03
2022-08-22T07:50:32.772Z,94673.69
2022-08-22T07:52:34.443Z,94670.13
2022-08-22T07:54:38.815Z,94673.25
2022-08-22T07:56:42.364Z,94673.44
2022-08-22T07:58:44.047Z,94666.69
2022-08-22T08:00:45.624Z,94670.25
2022-08-22T08:02:49.532Z,94675.66
2022-08-22T08:04:51.411Z,94662.56
2022-08-22T08:06:54.148Z,94653.25
2022-08-22T08:08:54.278Z,94654.31
2022-08-22T08:10:56.259Z,94650.84
2022-08-22T08:13:02.821Z,94652.69
2022-08-22T08:15:04.247Z,94648.78
2022-08-22T08:17:06.148Z,94655.75
2022-08-22T08:19:06.090Z,94653.63
2022-08-22T08:21:08.059Z,94662.38
2022-08-22T08:23:10.008Z,94660.50
2022-08-22T08:25:10.296Z,94663.66
2022-08-22T08:27:33.159Z,94651.44
2022-08-22T08:29:32.477Z,94644.41
2022-08-22T08:31:35.521Z,94651.34
2022-08-22T08:33:34.593Z,94651.78
2022-08-22T08:35:42.485Z,94650.09
2022-08-22T08:38:03.212Z,94649.28
2022-08-22T08:40:04.772Z,94644.59
2022-08-22T08:42:30.888Z,94645.25
2022-08-22T08:44:57.156Z,94635.78
2022-08-22T08:47:15.272Z,94639.69
2022-08-22T08:49:42.912Z,94632.88
2022-08-22T08:52:09.738Z,94629.91
2022-08-22T08:54:22.938Z,94631.03
2022-08-22T08:56:30.873Z,94640.50
2022-08-22T08:58:39.019Z,94631.69
2022-08-22T09:00:52.337Z,94636.31
2022-08-22T09:03:01.524Z,94639.75
2022-08-22T09:05:50.571Z,94631.31
2022-08-22T09:08:24.782Z,94633.44
2022-08-22T09:10:42.329Z,94632.06
2022-08-22T09:13:12.258Z,94635.31
2022-08-22T09:15:27.519Z,94634.50
2022-08-22T09:18:04.583Z,94632.91
2022-08-22T09:20:23.709Z,94626.97
2022-08-22T09:22:50.601Z,94629.41
2022-08-22T09:25:17.352Z,94626.00
2022-08-22T09:27:21.027Z,94628.84
2022-08-22T09:29:54.431Z,94624.28
2022-08-22T09:32:03.757Z,94620.47
2022-08-22T09:34:11.236Z,94621.81
2022-08-22T09:36:19.522Z,94620.75
2022-08-22T09:38:38.289Z,94626.44
2022-08-22T09:40:46.076Z,94625.34
2022-08-22T09:42:56.151Z,94623.00
2022-08-22T09:45:21.518Z,94628.84
2022-08-22T09:47:27.882Z,94619.09
2022-08-22T09:49:47.319Z,94612.28
2022-08-22T09:51:55.993Z,94615.31
2022-08-22T09:54:15.848Z,94609.34
2022-08-22T09:56:26.117Z,94609.72
2022-08-22T09:58:41.580Z,94604.06
2022-08-22T10:00:47.508Z,94596.31
2022-08-22T10:03:12.430Z,94602.81
2022-08-22T10:05:40.675Z,94600.38
2022-08-22T10:08:03.207Z,94587.84
2022-08-22T10:10:17.145Z,94589.22
2022-08-22T10:12:35.143Z,94585.97
2022-08-22T10:14:50.460Z,94576.13
2022-08-22T10:17:07.160Z,94583.97
2022-08-22T10:19:16.687Z,94577.31
2022-08-22T10:21:27.417Z,94574.34
2022-08-22T10:23:37.941Z,94580.84
2022-08-22T10:25:42.434Z,94578.88
2022-08-22T10:27:53.439Z,94578.66
2022-08-22T10:30:03.510Z,94567.28
2022-08-22T10:32:15.972Z,94567.47
2022-08-22T10:34:20.729Z,94561.31
2022-08-22T10:36:30.649Z,94562.66
2022-08-22T10:38:36.084Z,94555.75
2022-08-22T10:40:48.457Z,94559.75
2022-08-22T10:42:59.425Z,94545.16
2022-08-22T10:45:23.644Z,94549.47
2022-08-22T10:47:39.768Z,94548.25
2022-08-22T10:49:46.101Z,94545.94
2022-08-22T10:51:58.409Z,94548.47
2022-08-22T10:54:05.666Z,94542.66
2022-08-22T10:56:13.001Z,94542.00
2022-08-22T10:58:15.980Z,94540.66
2022-08-22T11:00:37.443Z,94546.31
2022-08-22T11:02:53.822Z,94543.09
2022-08-22T11:05:20.469Z,94544.84
2022-08-22T11:07:48.458Z,94538.69
2022-08-22T11:09:54.287Z,94548.59
2022-08-22T11:12:00.918Z,94529.56
2022-08-22T11:14:21.095Z,94537.00
2022-08-22T11:16:36.752Z,94537.78
2022-08-22T11:19:01.908Z,94537.50
2022-08-22T11:21:07.322Z,94538.44
2022-08-22T11:23:27.063Z,94537.53
2022-08-22T11:25:41.288Z,94541.44
2022-08-22T11:27:45.925Z,94537.59
2022-08-22T11:29:51.138Z,94525.84
2022-08-22T11:32:05.636Z,94527.56
2022-08-22T11:34:12.765Z,94536.16
2022-08-22T11:36:31.475Z,94537.28
2022-08-22T11:38:38.322Z,94542.00
2022-08-22T11:40:42.421Z,94539.06
2022-08-22T11:42:48.058Z,94528.16
2022-08-22T11:44:54.904Z,94526.13
2022-08-22T11:46:58.100Z,94524.97
2022-08-22T11:49:31.769Z,94528.72
2022-08-22T11:52:01.614Z,94525.72
2022-08-22T11:54:12.030Z,94528.91
2022-08-22T11:56:23.378Z,94520.44
2022-08-22T11:58:38.099Z,94526.97
2022-08-22T12:00:48.717Z,94520.66
2022-08-22T12:03:23.248Z,94526.00
2022-08-22T12:05:24.706Z,94515.00
2022-08-22T12:07:31.191Z,94516.00
2022-08-22T12:09:44.248Z,94516.47
2022-08-22T12:11:59.735Z,94515.53
2022-08-22T12:14:06.833Z,94516.22
2022-08-22T12:16:13.288Z,94515.88
2022-08-22T12:18:43.046Z,94519.88
2022-08-22T12:21:21.442Z,94502.69
2022-08-22T12:23:43.265Z,94506.56
2022-08-22T12:26:10.715Z,94498.13
2022-08-22T12:28:23.925Z,94493.81
2022-08-22T12:30:31.073Z,94492.66
2022-08-22T12:33:21.983Z,94485.47
2022-08-22T12:35:34.608Z,94491.88
2022-08-22T12:37:52.291Z,94469.78
2022-08-22T12:40:20.619Z,94477.38
2022-08-22T12:42:47.323Z,94470.09
2022-08-22T12:45:01.711Z,94464.06
2022-08-22T12:47:19.278Z,94465.88
2022-08-22T12:49:38.697Z,94462.00
2022-08-22T12:51:46.828Z,94458.66
2022-08-22T12:54:15.274Z,94468.44
2022-08-22T12:56:26.864Z,94465.31
2022-08-22T12:58:35.525Z,94467.19
2022-08-22T13:00:37.359Z,94465.69
2022-08-22T13:02:39.568Z,94462.25
2022-08-22T13:04:53.795Z,94452.94
2022-08-22T13:07:07.684Z,94451.97
2022-08-22T13:09:18.979Z,94457.84
2022-08-22T13:11:23.005Z,94470.19
2022-08-22T13:13:36.883Z,94481.97
2022-08-22T13:15:46.418Z,94496.31
2022-08-22T13:17:53.081Z,94501.84
2022-08-22T13:20:03.482Z,94500.50
2022-08-22T13:22:06.800Z,94491.06
2022-08-22T13:24:10.485Z,94482.81
2022-08-22T13:26:16.475Z,94491.47
2022-08-22T13:28:36.947Z,94496.50
2022-08-22T13:30:40.164Z,94500.75
2022-08-22T13:32:44.406Z,94502.38
2022-08-22T13:34:47.338Z,94508.09
2022-08-22T13:36:57.512Z,94521.09
2022-08-22T13:39:06.623Z,94524.81
2022-08-22T13:41:05.778Z,94535.63
2022-08-22T13:43:09.861Z,94541.00
2022-08-22T13:45:15.521Z,94554.97
2022-08-22T13:47:19.210Z,94560.50
2022-08-22T13:49:21.378Z,94572.75
2022-08-22T13:51:30.719Z,94570.94
2022-08-22T13:53:39.613Z,94574.13
2022-08-22T13:55:49.128Z,94578.66
2022-08-22T13:57:52.173Z,94594.81
2022-08-22T14:00:02.625Z,94599.75
2022-08-22T14:02:15.220Z,94594.78
2022-08-22T14:04:30.956Z,94598.78
2022-08-22T14:06:41.380Z,94602.50
2022-08-22T14:08:45.937Z,94609.50
2022-08-22T14:10:55.486Z,94620.97
2022-08-22T14:13:36.693Z,94621.91
2022-08-22T14:15:45.434Z,94617.81
2022-08-22T14:17:48.390Z,94610.84
2022-08-22T14:19:59.093Z,94619.47
2022-08-22T14:22:00.741Z,94614.97
2022-08-22T14:24:05.598Z,94609.19
2022-08-22T14:26:04.035Z,94616.97
2022-08-22T14:28:06.506Z,94623.97
2022-08-22T14:30:14.479Z,94626.88
2022-08-22T14:32:35.339Z,94628.09
2022-08-22T14:34:37.744Z,94618.91
2022-08-22T14:36:45.751Z,94614.16
2022-08-22T14:38:47.779Z,94603.34
2022-08-22T14:40:54.125Z,94592.44
2022-08-22T14:42:59.631Z,94598.22
2022-08-22T14:45:06.486Z,94591.19
2022-08-22T14:47:54.046Z,94594.91
2022-08-22T14:49:34.444Z,94598.84
2022-08-22T14:51:33.725Z,94593.50
2022-08-22T14:53:34.762Z,94594.31
2022-08-22T14:55:33.989Z,94592.88
2022-08-22T14:57:37.038Z,94584.88
2022-08-22T14:59:50.257Z,94595.13
2022-08-22T15:01:56.967Z,94580.97
2022-08-22T15:04:00.514Z,94585.03
2022-08-22T15:06:03.079Z,94583.16
2022-08-22T15:08:01.677Z,94573.88
2022-08-22T15:10:07.535Z,94582.25
2022-08-22T15:12:25.127Z,94587.72
2022-08-22T15:14:29.939Z,94587.25
2022-08-22T15:16:35.689Z,94588.06
2022-08-22T15:18:36.683Z,94580.63
2022-08-22T15:20:45.214Z,94589.72
2022-08-22T15:22:47.896Z,94580.69
2022-08-22T15:24:57.098Z,94582.34
2022-08-22T15:26:57.694Z,94581.91
2022-08-22T15:29:08.849Z,94580.09
2022-08-22T15:31:16.494Z,94583.66
2022-08-22T15:33:24.134Z,94581.78
2022-08-22T15:35:31.251Z,94583.44
2022-08-22T15:37:33.163Z,94582.84
2022-08-22T15:39:38.087Z,94576.25
2022-08-22T15:41:44.899Z,94582.44
2022-08-22T15:43:49.170Z,94581.69
2022-08-22T15:45:48.974Z,94579.84
2022-08-22T15:47:52.328Z,94590.09
2022-08-22T15:49:55.760Z,94599.72
2022-08-22T15:52:08.626Z,94600.72
2022-08-22T15:54:24.463Z,94604.25
2022-08-22T15:56:33.942Z,94603.88
2022-08-22T15:58:33.403Z,94618.28
2022-08-22T16:00:43.848Z,94618.53
2022-08-22T16:02:58.473Z,94625.31
2022-08-22T16:05:04.652Z,94622.84
2022-08-22T16:07:19.918Z,94627.19
2022-08-22T16:09:37.463Z,94634.56
2022-08-22T16:11:40.670Z,94637.63
2022-08-22T16:13:42.854Z,94639.28
2022-08-22T16:16:03.406Z,94633.50
2022-08-22T16:18:03.237Z,94628.59
2022-08-22T16:20:35.235Z,94621.59
2022-08-22T16:23:06.160Z,94626.53
2022-08-22T16:25:10.339Z,94625.72
2022-08-22T16:27:26.028Z,94618.13
2022-08-22T16:29:35.859Z,94624.09
2022-08-22T16:31:56.780Z,94625.31
2022-08-22T16:33:59.690Z,94630.25
2022-08-22T16:36:41.906Z,94626.16
2022-08-22T16:38:44.418Z,94628.63
2022-08-22T16:40:49.388Z,94632.72
2022-08-22T16:42:51.189Z,94624.69
2022-08-22T16:44:50.512Z,94632.28
2022-08-22T16:46:51.929Z,94625.91
2022-08-22T16:49:02.650Z,94624.28
2022-08-22T16:51:11.221Z,94618.31
2022-08-22T16:53:12.508Z,94614.00
2022-08-22T16:55:44.240Z,94611.56
2022-08-22T16:58:09.773Z,94621.66
2022-08-22T17:00:28.239Z,94613.41
2022-08-22T17:02:49.733Z,94616.50
2022-08-22T17:05:03.362Z,94611.16
2022-08-22T17:07:15.650Z,94612.81
2022-08-22T17:09:34.346Z,94609.94
2022-08-22T17:11:48.404Z,94606.63
2022-08-22T17:14:04.599Z,94617.13
2022-08-22T17:16:15.635Z,94614.28
2022-08-22T17:18:28.146Z,94616.50
2022-08-22T17:20:38.620Z,94611.34
2022-08-22T17:22:46.191Z,94614.00
2022-08-22T17:24:47.699Z,94616.69
2022-08-22T17:26:56.816Z,94607.66
2022-08-22T17:29:09.894Z,94618.13
2022-08-22T17:31:17.976Z,94622.03
2022-08-22T17:33:29.962Z,94622.03
2022-08-22T17:35:51.544Z,94627.78
2022-08-22T17:38:03.821Z,94621.19
2022-08-22T17:40:20.962Z,94630.88
2022-08-22T17:42:47.252Z,94630.66
2022-08-22T17:44:53.998Z,94633.13
2022-08-22T17:46:56.618Z,94637.22
2022-08-22T17:49:01.066Z,94640.72
2022-08-22T17:51:12.387Z,94640.31
2022-08-22T17:53:16.658Z,94638.88
2022-08-22T17:55:20.523Z,94646.31
2022-08-22T17:57:28.524Z,94637.22
2022-08-22T17:59:31.781Z,94639.28
2022-08-22T18:01:46.778Z,94643.59
2022-08-22T18:03:52.773Z,94638.25
2022-08-22T18:05:53.723Z,94637.63
2022-08-22T18:08:07.191Z,94642.97
2022-08-22T18:10:14.576Z,94648.75
2022-08-22T18:12:20.451Z,94647.91
2022-08-22T18:14:31.059Z,94654.44
2022-08-22T18:16:34.721Z,94662.03
2022-08-22T18:18:36.614Z,94665.75
2022-08-22T18:20:45.856Z,94661.00
2022-08-22T18:22:51.509Z,94667.81
2022-08-22T18:24:55.726Z,94669.41
2022-08-22T18:27:04.580Z,94664.69
2022-08-22T18:29:12.915Z,94662.63
2022-08-22T18:31:38.193Z,94658.31
2022-08-22T18:33:43.211Z,94665.28
2022-08-22T18:35:50.008Z,94671.41
2022-08-22T18:37:58.980Z,94669.19
2022-08-22T18:40:02.945Z,94676.13
2022-08-22T18:42:08.173Z,94679.00
2022-08-22T18:44:12.246Z,94683.91
2022-08-22T18:46:34.308Z,94685.19
2022-08-22T18:48:59.501Z,94685.81
2022-08-22T18:51:24.939Z,94687.06
2022-08-22T18:53:39.501Z,94694.22
2022-08-22T18:55:53.014Z,94686.88
2022-08-22T18:58:35.066Z,94689.69
2022-08-22T19:00:56.176Z,94696.25
2022-08-22T19:03:12.117Z,94703.03
2022-08-22T19:05:34.511Z,94706.72
2022-08-22T19:07:52.248Z,94701.59
2022-08-22T19:10:11.369Z,94697.69
2022-08-22T19:12:27.903Z,94696.91
2022-08-22T19:14:49.394Z,94699.19
2022-08-22T19:17:15.703Z,94699.38
2022-08-22T19:19:21.576Z,94710.22
2022-08-22T19:21:45.004Z,94697.03
2022-08-22T19:23:47.602Z,94702.00
2022-08-22T19:26:29.521Z,94700.34
2022-08-22T19:28:37.089Z,94711.19
2022-08-22T19:30:45.224Z,94715.50
2022-08-22T19:33:05.240Z,94710.16
2022-08-22T19:35:19.912Z,94707.06
2022-08-22T19:37:30.947Z,94718.50
2022-08-22T19:39:54.667Z,94726.50
2022-08-22T19:41:57.152Z,94722.81
2022-08-22T19:43:57.018Z,94726.31
2022-08-22T19:45:57.313Z,94716.66
2022-08-22T19:48:14.096Z,94718.69
2022-08-22T19:50:30.925Z,94710.06
2022-08-22T19:52:43.806Z,94706.13
2022-08-22T19:54:52.273Z,94711.88
2022-08-22T19:57:04.164Z,94715.31
2022-08-22T19:59:16.659Z,94709.19
2022-08-22T20:01:38.617Z,94712.03
2022-08-22T20:03:50.753Z,94712.25
2022-08-22T20:05:57.015Z,94716.97
2022-08-22T20:08:24.984Z,94715.94
2022-08-22T20:10:32.376Z,94721.06
2022-08-22T20:12:38.297Z,94713.66
2022-08-22T20:14:41.039Z,94716.59
2022-08-22T20:17:03.170Z,94713.50
2022-08-22T20:19:21.752Z,94715.56
2022-08-22T20:21:42.322Z,94716.00
2022-08-22T20:23:41.816Z,94711.22
2022-08-22T20:25:45.730Z,94709.19
2022-08-22T20:27:46.962Z,94704.28
2022-08-22T20:29:54.033Z,94710.84
2022-08-22T20:31:56.773Z,94718.19
2022-08-22T20:34:01.965Z,94713.22
2022-08-22T20:36:03.192Z,94715.50
2022-08-22T20:38:07.258Z,94705.94
2022-08-22T20:40:25.854Z,94706.06
2022-08-22T20:42:38.803Z,94706.44
2022-08-22T20:44:46.504Z,94714.97
2022-08-22T20:46:57.684Z,94716.06
2022-08-22T20:48:57.419Z,94718.16
2022-08-22T20:51:04.270Z,94712.72
2022-08-22T20:53:13.065Z,94715.09
2022-08-22T20:55:18.790Z,94715.81
2022-08-22T20:57:18.813Z,94725.88
2022-08-22T20:59:25.692Z,94735.72
2022-08-22T21:01:24.225Z,94727.13
2022-08-22T21:03:37.903Z,94734.63
2022-08-22T21:05:39.709Z,94739.53
2022-08-22T21:07:40.454Z,94740.94
2022-08-22T21:09:56.405Z,94741.31
2022-08-22T21:12:00.379Z,94740.50
2022-08-22T21:13:59.428Z,94731.50
2022-08-22T21:15:59.668Z,94723.88
2022-08-22T21:17:58.898Z,94719.38
2022-08-22T21:19:59.245Z,94714.88
2022-08-22T21:22:12.505Z,94711.19
2022-08-22T21:24:11.218Z,94713.03
2022-08-22T21:26:11.965Z,94704.63
2022-08-22T21:28:10.431Z,94709.50
2022-08-22T21:30:10.694Z,94714.19
2022-08-22T21:32:19.920Z,94713.38
2022-08-22T21:34:22.236Z,94717.06
2022-08-22T21:36:25.374Z,94724.47
2022-08-22T21:38:24.003Z,94727.72
2022-08-22T21:40:30.532Z,94723.38
2022-08-22T21:42:33.539Z,94724.25
2022-08-22T21:44:36.331Z,94724.63
2022-08-22T21:46:34.771Z,94717.78
2022-08-22T21:48:37.032Z,94713.09
2022-08-22T21:50:38.378Z,94709.63
2022-08-22T21:52:40.076Z,94703.69
2022-08-22T21:54:42.766Z,94713.31
2022-08-22T21:56:41.031Z,94708.38
2022-08-22T21:58:39.586Z,94703.84
2022-08-22T22:00:48.900Z,94699.50
2022-08-22T22:02:47.637Z,94707.50
2022-08-22T22:04:45.955Z,94702.16
2022-08-22T22:06:44.385Z,94695.81
2022-08-22T22:08:44.133Z,94696.38
2022-08-22T22:10:45.374Z,94691.06
2022-08-22T22:12:45.563Z,94681.84
2022-08-22T22:14:47.977Z,94681.03
2022-08-22T22:16:46.377Z,94679.69
2022-08-22T22:18:44.637Z,94682.28
2022-08-22T22:20:44.077Z,94678.75
2022-08-22T22:22:46.664Z,94685.09
2022-08-22T22:24:46.560Z,94682.19
2022-08-22T22:26:45.092Z,94675.19
2022-08-22T22:28:47.865Z,94675.84
2022-08-22T22:30:50.571Z,94684.25
2022-08-22T22:32:49.369Z,94672.78
2022-08-22T22:34:50.806Z,94667.09
2022-08-22T22:36:49.146Z,94666.44
2022-08-22T22:38:48.052Z,94665.81
2022-08-22T22:40:47.738Z,94658.84
2022-08-22T22:42:46.106Z,94655.38
2022-08-22T22:44:47.588Z,94652.25
2022-08-22T22:46:46.023Z,94659.16
2022-08-22T22:48:44.379Z,94652.25
2022-08-22T22:50:44.183Z,94642.00
2022-08-22T22:52:42.484Z,94648.94
2022-08-22T22:54:41.373Z,94644.72
2022-08-22T22:56:42.118Z,94647.38
2022-08-22T22:58:47.462Z,94653.72
2022-08-22T23:00:46.061Z,94650.03
2022-08-22T23:02:44.368Z,94657.66
2022-08-22T23:04:45.035Z,94662.16
2022-08-22T23:06:43.361Z,94658.59
2022-08-22T23:08:42.548Z,94671.84
2022-08-22T23:10:41.593Z,94667.28
2022-08-22T23:12:41.429Z,94666.41
2022-08-22T23:14:39.773Z,94666.03
2022-08-22T23:16:41.581Z,94661.81
2022-08-22T23:18:39.891Z,94665.72
2022-08-22T23:20:38.248Z,94678.13
2022-08-22T23:22:36.508Z,94681.75
2022-08-22T23:24:36.319Z,94670.09
2022-08-22T23:26:34.643Z,94669.41
2022-08-22T23:28:38.543Z,94674.00
2022-08-22T23:30:36.750Z,94665.78
2022-08-22T23:32:36.328Z,94679.84
2022-08-22T23:34:37.378Z,94683.50
2022-08-22T23:36:36.214Z,94687.25
2022-08-22T23:38:34.438Z,94688.84
2022-08-22T23:40:33.010Z,94692.50
2022-08-22T23:42:31.268Z,94683.19
2022-08-22T23:44:37.189Z,94695.66
2022-08-22T23:46:36.138Z,94697.88
2022-08-22T23:48:34.437Z,94692.84
2022-08-22T23:50:33.994Z,94693.72
2022-08-22T23:52:32.372Z,94687.88
2022-08-22T23:54:30.643Z,94685.47
2022-08-22T23:56:31.025Z,94690.47
2022-08-22T23:58:29.205Z,94697.97
